Time;durP1;ratioP1;P1;durP2;ratioP2;P2;SDS_P1;SDS_P2;PMS_P1;PMS_P2;Temp;Humidity;BMP_temperature;BMP_pressure;BME280_temperature;BME280_humidity;BME280_pressure;Samples;Min_cycle;Max_cycle;Signal;HPM_P1;HPM_P2
2023/11/27 00:01:00;;;;;;;6.55;3.03;;;;;;;;;;5026103;28;20375;-84
2023/11/27 00:03:45;;;;;;;9.27;3.10;;;;;;;;;;5023865;28;20024;-87
2023/11/27 00:06:30;;;;;;;6.90;2.85;;;;;;;;;;5023928;28;20035;-86
2023/11/27 00:09:18;;;;;;;5.55;2.88;;;;;;;;;;5007513;28;20170;-86
2023/11/27 00:12:04;;;;;;;6.90;3.40;;;;;;;;;;5012206;28;20018;-85
2023/11/27 00:14:49;;;;;;;6.72;3.75;;;;;;;;;;5023631;28;20487;-83
2023/11/27 00:17:34;;;;;;;5.68;3.00;;;;;;;;;;5026786;28;20120;-82
2023/11/27 00:20:20;;;;;;;10.68;4.28;;;;;;;;;;5027839;28;20021;-83
2023/11/27 00:23:05;;;;;;;9.80;4.32;;;;;;;;;;5026878;28;20025;-84
2023/11/27 00:25:51;;;;;;;5.88;3.22;;;;;;;;;;5009192;28;20017;-83
2023/11/27 00:28:36;;;;;;;4.53;2.58;;;;;;;;;;5011282;28;20180;-85
2023/11/27 00:31:21;;;;;;;5.72;2.85;;;;;;;;;;4997998;28;20038;-83
2023/11/27 00:34:06;;;;;;;4.78;2.78;;;;;;;;;;4993828;28;20460;-84
2023/11/27 00:36:51;;;;;;;5.22;3.08;;;;;;;;;;5007426;28;20071;-85
2023/11/27 00:39:37;;;;;;;10.00;2.95;;;;;;;;;;5008301;28;20030;-85
2023/11/27 00:42:22;;;;;;;5.45;3.00;;;;;;;;;;5006750;28;20026;-84
2023/11/27 00:45:08;;;;;;;6.00;2.90;;;;;;;;;;5006135;28;20033;-84
2023/11/27 00:47:55;;;;;;;5.43;2.67;;;;;;;;;;5001805;28;20021;-85
2023/11/27 00:50:41;;;;;;;7.78;2.70;;;;;;;;;;5001013;28;20048;-84
2023/11/27 00:53:26;;;;;;;4.60;2.47;;;;;;;;;;4983490;28;20056;-83
2023/11/27 00:56:12;;;;;;;4.68;2.50;;;;;;;;;;5002772;28;20116;-84
2023/11/27 00:58:57;;;;;;;4.88;2.88;;;;;;;;;;5001573;28;20060;-83
2023/11/27 01:01:42;;;;;;;4.22;2.35;;;;;;;;;;5008386;28;20029;-84
2023/11/27 01:04:27;;;;;;;8.75;3.10;;;;;;;;;;5005495;28;20025;-83
2023/11/27 01:07:13;;;;;;;7.18;3.65;;;;;;;;;;5001081;28;20072;-84
2023/11/27 01:09:58;;;;;;;9.25;4.32;;;;;;;;;;5011689;28;20029;-83
2023/11/27 01:12:44;;;;;;;8.52;2.63;;;;;;;;;;5011026;28;20037;-83
2023/11/27 01:15:30;;;;;;;5.30;2.92;;;;;;;;;;4997808;28;20048;-84
2023/11/27 01:18:15;;;;;;;3.78;2.47;;;;;;;;;;5010121;28;20036;-82
2023/11/27 01:21:00;;;;;;;6.72;2.80;;;;;;;;;;5005652;28;20053;-84
2023/11/27 01:23:46;;;;;;;5.80;2.95;;;;;;;;;;5006945;28;20514;-83
2023/11/27 01:26:32;;;;;;;5.47;2.70;;;;;;;;;;5012910;28;20433;-85
2023/11/27 01:29:18;;;;;;;7.07;2.58;;;;;;;;;;5007155;28;20088;-85
2023/11/27 01:32:03;;;;;;;4.40;2.30;;;;;;;;;;5007306;28;20049;-85
2023/11/27 01:34:48;;;;;;;5.05;3.28;;;;;;;;;;4997299;28;20523;-85
2023/11/27 01:37:34;;;;;;;5.95;3.10;;;;;;;;;;4996654;28;20035;-85
2023/11/27 01:40:19;;;;;;;17.55;7.15;;;;;;;;;;4994486;28;20034;-83
2023/11/27 01:43:12;;;;;;;6.57;3.25;;;;;;;;;;5000902;28;20021;-82
2023/11/27 01:46:16;;;;;;;10.65;5.10;;;;;;;;;;4988796;28;20134;-84
2023/11/27 01:49:01;;;;;;;7.60;3.83;;;;;;;;;;5023796;28;20048;-85
2023/11/27 01:51:46;;;;;;;6.55;2.97;;;;;;;;;;5006651;28;20436;-84
2023/11/27 01:54:32;;;;;;;4.13;2.35;;;;;;;;;;5024815;28;20041;-83
2023/11/27 01:57:19;;;;;;;5.43;2.55;;;;;;;;;;5024569;28;20005;-84
2023/11/27 02:00:05;;;;;;;4.32;2.53;;;;;;;;;;5030219;28;20077;-84
2023/11/27 02:02:50;;;;;;;5.28;2.38;;;;;;;;;;5024195;28;20053;-84
2023/11/27 02:05:35;;;;;;;6.82;2.85;;;;;;;;;;5007152;28;20029;-84
2023/11/27 02:08:20;;;;;;;5.80;2.80;;;;;;;;;;4995124;28;20091;-83
2023/11/27 02:11:06;;;;;;;5.63;2.88;;;;;;;;;;5004734;28;20026;-84
2023/11/27 02:13:52;;;;;;;4.50;2.15;;;;;;;;;;5005279;28;20040;-83
2023/11/27 02:16:37;;;;;;;6.15;3.05;;;;;;;;;;5009393;28;20032;-84
2023/11/27 02:19:22;;;;;;;3.38;2.15;;;;;;;;;;5010163;28;20060;-86
2023/11/27 02:22:08;;;;;;;4.75;2.25;;;;;;;;;;5009215;28;20053;-83
2023/11/27 02:24:53;;;;;;;7.22;2.97;;;;;;;;;;5005384;28;20080;-83
2023/11/27 02:27:39;;;;;;;7.28;2.38;;;;;;;;;;4991136;28;20057;-83
2023/11/27 02:30:24;;;;;;;7.28;2.88;;;;;;;;;;5002727;28;20083;-84
2023/11/27 02:33:10;;;;;;;5.43;2.85;;;;;;;;;;4995394;28;20043;-84
2023/11/27 02:35:55;;;;;;;4.88;2.95;;;;;;;;;;5010365;28;20085;-84
2023/11/27 02:38:40;;;;;;;4.93;2.70;;;;;;;;;;4990831;28;20076;-84
2023/11/27 02:41:26;;;;;;;7.53;2.85;;;;;;;;;;5008079;28;20375;-83
2023/11/27 02:44:11;;;;;;;3.47;2.30;;;;;;;;;;5001174;28;20034;-84
2023/11/27 02:46:57;;;;;;;3.05;2.13;;;;;;;;;;5007495;28;20076;-83
2023/11/27 02:49:42;;;;;;;7.00;2.83;;;;;;;;;;4989175;28;20032;-83
2023/11/27 02:52:28;;;;;;;3.70;2.22;;;;;;;;;;5006418;28;20189;-83
2023/11/27 02:55:13;;;;;;;5.78;2.63;;;;;;;;;;5005216;28;20105;-84
2023/11/27 02:57:58;;;;;;;2.88;1.80;;;;;;;;;;5004372;28;20033;-83
2023/11/27 03:00:43;;;;;;;4.25;2.58;;;;;;;;;;5006331;28;20013;-84
2023/11/27 03:03:28;;;;;;;4.38;2.53;;;;;;;;;;4997190;28;20026;-84
2023/11/27 03:06:14;;;;;;;5.45;2.55;;;;;;;;;;5008229;28;20381;-84
2023/11/27 03:08:59;;;;;;;4.25;2.40;;;;;;;;;;5006981;28;20017;-85
2023/11/27 03:11:44;;;;;;;5.47;2.33;;;;;;;;;;5041222;28;20044;-83
2023/11/27 03:14:29;;;;;;;2.00;1.60;;;;;;;;;;5036799;28;20028;-84
2023/11/27 03:17:15;;;;;;;7.78;2.95;;;;;;;;;;5010348;28;20472;-83
2023/11/27 03:20:00;;;;;;;5.78;2.47;;;;;;;;;;5012186;28;20032;-83
2023/11/27 03:22:45;;;;;;;5.15;2.03;;;;;;;;;;5012102;28;20032;-82
2023/11/27 03:25:30;;;;;;;2.95;2.03;;;;;;;;;;5005658;28;20021;-84
2023/11/27 03:28:16;;;;;;;4.68;2.17;;;;;;;;;;5006121;28;20176;-83
2023/11/27 03:31:01;;;;;;;7.93;2.30;;;;;;;;;;5006616;28;20095;-83
2023/11/27 03:33:46;;;;;;;6.05;2.75;;;;;;;;;;5007172;28;20033;-85
2023/11/27 03:36:32;;;;;;;4.85;2.55;;;;;;;;;;5011858;28;20593;-83
2023/11/27 03:39:17;;;;;;;5.13;2.40;;;;;;;;;;5012073;28;20484;-83
2023/11/27 03:42:02;;;;;;;3.95;2.25;;;;;;;;;;4990447;28;20512;-84
2023/11/27 03:44:47;;;;;;;5.32;2.47;;;;;;;;;;5020216;28;20120;-84
2023/11/27 03:47:32;;;;;;;4.70;1.88;;;;;;;;;;4995030;28;20574;-83
2023/11/27 03:50:18;;;;;;;3.22;2.25;;;;;;;;;;5010565;28;20083;-83
2023/11/27 03:53:04;;;;;;;3.03;2.08;;;;;;;;;;5010357;28;20044;-83
2023/11/27 03:55:49;;;;;;;3.80;2.10;;;;;;;;;;5011815;28;20119;-83
2023/11/27 03:58:34;;;;;;;6.35;2.70;;;;;;;;;;5011504;28;20388;-84
2023/11/27 04:01:20;;;;;;;6.55;2.35;;;;;;;;;;5009632;28;20030;-84
2023/11/27 04:04:05;;;;;;;6.07;2.65;;;;;;;;;;4995069;28;20688;-83
2023/11/27 04:06:50;;;;;;;4.28;2.20;;;;;;;;;;5001379;28;20025;-84
2023/11/27 04:09:37;;;;;;;4.30;1.98;;;;;;;;;;5003207;28;20113;-83
2023/11/27 04:12:22;;;;;;;4.28;2.20;;;;;;;;;;4973072;28;20032;-84
2023/11/27 04:15:08;;;;;;;7.10;3.22;;;;;;;;;;5003158;28;20021;-84
2023/11/27 04:17:53;;;;;;;3.55;2.35;;;;;;;;;;5006727;28;20025;-83
2023/11/27 04:20:39;;;;;;;7.05;2.83;;;;;;;;;;5008015;28;20112;-84
2023/11/27 04:23:24;;;;;;;4.28;1.98;;;;;;;;;;5006475;28;20039;-84
2023/11/27 04:26:09;;;;;;;4.03;1.85;;;;;;;;;;5001266;28;20034;-84
2023/11/27 04:28:54;;;;;;;4.82;1.80;;;;;;;;;;5010421;28;20065;-86
2023/11/27 04:31:40;;;;;;;5.53;1.85;;;;;;;;;;4998071;28;20034;-85
2023/11/27 04:34:25;;;;;;;4.35;1.80;;;;;;;;;;5000797;28;20871;-84
2023/11/27 04:37:14;;;;;;;3.42;1.77;;;;;;;;;;4985924;28;20033;-85
2023/11/27 04:39:59;;;;;;;3.50;2.10;;;;;;;;;;4994003;28;20018;-84
2023/11/27 04:42:45;;;;;;;2.88;1.60;;;;;;;;;;5007205;28;20048;-84
2023/11/27 04:45:30;;;;;;;6.82;2.65;;;;;;;;;;5025870;28;20022;-85
2023/11/27 04:48:15;;;;;;;3.72;1.65;;;;;;;;;;4994453;28;20025;-84
2023/11/27 04:51:01;;;;;;;3.30;1.80;;;;;;;;;;5011808;28;20052;-84
2023/11/27 04:53:46;;;;;;;5.10;1.63;;;;;;;;;;5015372;28;20444;-83
2023/11/27 04:56:31;;;;;;;3.45;1.67;;;;;;;;;;5001865;28;20025;-83
2023/11/27 04:59:17;;;;;;;2.78;2.25;;;;;;;;;;5013888;28;20085;-83
2023/11/27 05:02:02;;;;;;;4.82;1.60;;;;;;;;;;5008242;28;20025;-84
2023/11/27 05:04:47;;;;;;;3.60;1.75;;;;;;;;;;5021295;28;20033;-84
2023/11/27 05:07:33;;;;;;;3.80;1.98;;;;;;;;;;5036361;28;20036;-83
2023/11/27 05:10:19;;;;;;;2.83;1.40;;;;;;;;;;5034783;28;20037;-83
2023/11/27 05:13:04;;;;;;;4.18;1.75;;;;;;;;;;5007607;28;20136;-83
2023/11/27 05:15:50;;;;;;;3.45;1.60;;;;;;;;;;5017939;28;20452;-84
2023/11/27 05:18:35;;;;;;;4.85;1.70;;;;;;;;;;5016780;28;20052;-83
2023/11/27 05:21:21;;;;;;;4.25;2.03;;;;;;;;;;5018867;28;20531;-84
2023/11/27 05:24:07;;;;;;;5.35;2.55;;;;;;;;;;5010109;28;20454;-84
2023/11/27 05:26:53;;;;;;;4.50;1.85;;;;;;;;;;5010379;28;20028;-84
2023/11/27 05:29:38;;;;;;;3.00;1.98;;;;;;;;;;5012578;28;20080;-84
2023/11/27 05:32:23;;;;;;;3.15;1.42;;;;;;;;;;5012421;28;20029;-83
2023/11/27 05:35:08;;;;;;;3.67;2.42;;;;;;;;;;5011656;28;20392;-83
2023/11/27 05:37:54;;;;;;;7.70;3.53;;;;;;;;;;5028146;28;20450;-85
2023/11/27 05:40:40;;;;;;;16.15;6.40;;;;;;;;;;5009522;28;20025;-84
2023/11/27 05:43:27;;;;;;;7.50;2.70;;;;;;;;;;5005634;28;20014;-84
2023/11/27 05:46:12;;;;;;;6.72;2.85;;;;;;;;;;5009567;28;20108;-83
2023/11/27 05:48:59;;;;;;;2.80;1.48;;;;;;;;;;5014836;28;20029;-82
2023/11/27 05:51:45;;;;;;;4.70;2.28;;;;;;;;;;5009931;28;20037;-84
2023/11/27 05:54:30;;;;;;;3.03;1.73;;;;;;;;;;5004731;28;20025;-81
2023/11/27 05:57:15;;;;;;;3.38;2.00;;;;;;;;;;5000331;28;20425;-83
2023/11/27 06:00:03;;;;;;;2.95;1.77;;;;;;;;;;5006813;28;20021;-84
2023/11/27 06:02:48;;;;;;;5.15;2.10;;;;;;;;;;4985608;28;20032;-82
2023/11/27 06:05:34;;;;;;;3.55;2.00;;;;;;;;;;5008740;28;20021;-82
2023/11/27 06:08:20;;;;;;;3.80;2.03;;;;;;;;;;5007559;28;20029;-82
2023/11/27 06:11:05;;;;;;;3.70;1.88;;;;;;;;;;5008063;28;20450;-81
2023/11/27 06:13:50;;;;;;;4.28;1.85;;;;;;;;;;5007215;28;20385;-82
2023/11/27 06:16:35;;;;;;;2.88;1.60;;;;;;;;;;5008640;28;20030;-84
2023/11/27 06:19:22;;;;;;;5.95;2.20;;;;;;;;;;5017069;28;20038;-84
2023/11/27 06:22:07;;;;;;;4.55;2.20;;;;;;;;;;5010450;28;20021;-83
2023/11/27 06:24:52;;;;;;;6.43;2.20;;;;;;;;;;5005822;28;20499;-85
2023/11/27 06:27:37;;;;;;;5.22;2.20;;;;;;;;;;5006835;28;20140;-84
2023/11/27 06:30:23;;;;;;;3.50;2.03;;;;;;;;;;5020185;28;20037;-84
2023/11/27 06:33:08;;;;;;;3.15;1.85;;;;;;;;;;5014223;28;20033;-82
2023/11/27 06:35:54;;;;;;;5.13;2.20;;;;;;;;;;5020072;28;20033;-80
2023/11/27 06:38:39;;;;;;;3.72;2.20;;;;;;;;;;5024306;28;20041;-83
2023/11/27 06:41:25;;;;;;;3.30;2.13;;;;;;;;;;5020809;28;20564;-83
2023/11/27 06:44:13;;;;;;;7.93;2.75;;;;;;;;;;5022167;28;20036;-83
2023/11/27 06:46:59;;;;;;;3.60;2.60;;;;;;;;;;5019653;28;20103;-83
2023/11/27 06:49:45;;;;;;;7.00;2.25;;;;;;;;;;5018514;28;20033;-83
2023/11/27 06:52:30;;;;;;;6.28;2.03;;;;;;;;;;5019965;28;20554;-83
2023/11/27 06:55:16;;;;;;;5.10;2.72;;;;;;;;;;5011262;28;20048;-83
2023/11/27 06:58:01;;;;;;;6.85;2.25;;;;;;;;;;5019600;28;20108;-83
2023/11/27 07:00:46;;;;;;;7.38;2.80;;;;;;;;;;5037300;28;20034;-83
2023/11/27 07:03:31;;;;;;;6.68;2.90;;;;;;;;;;5021855;28;20040;-83
2023/11/27 07:06:18;;;;;;;7.75;2.97;;;;;;;;;;5020863;28;20596;-84
2023/11/27 07:09:07;;;;;;;6.32;2.20;;;;;;;;;;5021009;28;20039;-82
2023/11/27 07:11:53;;;;;;;3.80;2.00;;;;;;;;;;5022663;28;20053;-83
2023/11/27 07:14:38;;;;;;;5.88;2.30;;;;;;;;;;5003476;28;20483;-84
2023/11/27 07:17:23;;;;;;;4.20;2.42;;;;;;;;;;5012855;28;20029;-83
2023/11/27 07:20:17;;;;;;;6.50;2.75;;;;;;;;;;5021396;28;20044;-82
2023/11/27 07:23:06;;;;;;;5.22;2.38;;;;;;;;;;5020823;28;20021;-83
2023/11/27 07:25:51;;;;;;;5.07;2.45;;;;;;;;;;5020309;28;20026;-84
2023/11/27 07:28:38;;;;;;;5.28;3.17;;;;;;;;;;5026983;28;20408;-84
2023/11/27 07:31:33;;;;;;;7.90;2.63;;;;;;;;;;5017580;28;20059;-83
2023/11/27 07:34:18;;;;;;;5.63;2.60;;;;;;;;;;4984029;28;20045;-83
2023/11/27 07:37:03;;;;;;;4.38;2.25;;;;;;;;;;4991843;28;20096;-84
2023/11/27 07:39:49;;;;;;;5.43;2.42;;;;;;;;;;5005353;28;20034;-83
2023/11/27 07:42:34;;;;;;;4.03;2.40;;;;;;;;;;5007988;28;20025;-84
2023/11/27 07:45:19;;;;;;;8.27;3.08;;;;;;;;;;5008601;28;20041;-82
2023/11/27 07:48:05;;;;;;;6.28;3.00;;;;;;;;;;5022051;28;20033;-83
2023/11/27 07:50:50;;;;;;;14.55;6.90;;;;;;;;;;5027907;28;20375;-82
2023/11/27 07:53:35;;;;;;;13.05;6.22;;;;;;;;;;5025329;28;20047;-83
2023/11/27 07:56:30;;;;;;;9.30;4.22;;;;;;;;;;5006643;28;20032;-83
2023/11/27 07:59:16;;;;;;;9.02;4.40;;;;;;;;;;5006016;28;20072;-83
2023/11/27 08:02:01;;;;;;;7.55;3.72;;;;;;;;;;5013919;28;20017;-83
2023/11/27 08:04:46;;;;;;;8.65;3.10;;;;;;;;;;5028366;28;20108;-83
2023/11/27 08:07:32;;;;;;;6.57;3.00;;;;;;;;;;5026440;28;20033;-83
2023/11/27 08:10:18;;;;;;;6.93;3.63;;;;;;;;;;5026267;28;20136;-83
2023/11/27 08:13:04;;;;;;;8.45;3.97;;;;;;;;;;5018437;28;20108;-83
2023/11/27 08:15:49;;;;;;;6.80;3.13;;;;;;;;;;5001879;28;20025;-82
2023/11/27 08:18:38;;;;;;;8.82;3.55;;;;;;;;;;5022161;28;20035;-84
2023/11/27 08:21:24;;;;;;;8.57;3.70;;;;;;;;;;5017479;28;20100;-84
2023/11/27 08:24:12;;;;;;;7.13;3.55;;;;;;;;;;5038191;28;20083;-83
2023/11/27 08:27:01;;;;;;;12.82;5.00;;;;;;;;;;5006007;28;20257;-83
2023/11/27 08:29:47;;;;;;;7.72;3.30;;;;;;;;;;5027303;28;20056;-83
2023/11/27 08:32:32;;;;;;;7.68;3.10;;;;;;;;;;5040639;28;20115;-83
2023/11/27 08:35:17;;;;;;;7.65;2.90;;;;;;;;;;5025429;28;20041;-84
2023/11/27 08:38:04;;;;;;;7.78;3.65;;;;;;;;;;5025072;28;20398;-84
2023/11/27 08:40:49;;;;;;;5.63;3.53;;;;;;;;;;5027704;28;20029;-83
2023/11/27 08:43:35;;;;;;;7.13;3.42;;;;;;;;;;5027055;28;20025;-83
2023/11/27 08:46:20;;;;;;;5.88;3.42;;;;;;;;;;5025638;28;20032;-83
2023/11/27 08:49:06;;;;;;;9.10;4.05;;;;;;;;;;5005965;28;20187;-84
2023/11/27 08:51:51;;;;;;;9.10;3.67;;;;;;;;;;5009861;28;20032;-84
2023/11/27 08:54:36;;;;;;;5.55;3.45;;;;;;;;;;5026824;28;20075;-83
2023/11/27 08:57:23;;;;;;;5.82;3.47;;;;;;;;;;5024919;28;20036;-82
2023/11/27 09:00:10;;;;;;;8.00;3.60;;;;;;;;;;5021794;28;20037;-83
2023/11/27 09:02:56;;;;;;;8.93;2.83;;;;;;;;;;5021675;28;20049;-83
2023/11/27 09:05:42;;;;;;;6.28;3.22;;;;;;;;;;5021792;28;20025;-84
2023/11/27 09:08:27;;;;;;;4.15;2.70;;;;;;;;;;5021343;28;20108;-83
2023/11/27 09:11:12;;;;;;;7.13;3.10;;;;;;;;;;5026826;28;20095;-83
2023/11/27 09:13:57;;;;;;;7.63;3.03;;;;;;;;;;5024811;28;20033;-82
2023/11/27 09:16:42;;;;;;;10.02;2.95;;;;;;;;;;5026682;28;20028;-82
2023/11/27 09:19:28;;;;;;;5.38;3.03;;;;;;;;;;5026823;28;20029;-83
2023/11/27 09:22:14;;;;;;;8.60;2.85;;;;;;;;;;5025388;28;20123;-82
2023/11/27 09:25:00;;;;;;;7.43;3.03;;;;;;;;;;5021116;28;20064;-83
2023/11/27 09:27:46;;;;;;;5.57;2.63;;;;;;;;;;5017440;28;20131;-83
2023/11/27 09:30:31;;;;;;;10.15;3.17;;;;;;;;;;5029447;28;20119;-83
2023/11/27 09:33:16;;;;;;;6.68;3.08;;;;;;;;;;5008384;28;20084;-83
2023/11/27 09:36:03;;;;;;;6.28;2.65;;;;;;;;;;5010806;28;20021;-82
2023/11/27 09:38:49;;;;;;;6.82;2.72;;;;;;;;;;5024743;28;20509;-83
2023/11/27 09:41:35;;;;;;;5.22;2.55;;;;;;;;;;5025104;28;20033;-83
2023/11/27 09:44:20;;;;;;;7.53;2.90;;;;;;;;;;5025658;28;20031;-82
2023/11/27 09:47:07;;;;;;;5.25;2.75;;;;;;;;;;5023933;28;20029;-83
2023/11/27 09:49:55;;;;;;;7.25;3.03;;;;;;;;;;5005800;28;20034;-82
2023/11/27 09:52:59;;;;;;;6.20;2.65;;;;;;;;;;5013804;28;20029;-83
2023/11/27 09:55:49;;;;;;;8.43;3.85;;;;;;;;;;5030910;28;20068;-82
2023/11/27 09:58:36;;;;;;;6.03;3.40;;;;;;;;;;5042967;28;20088;-81
2023/11/27 10:01:27;;;;;;;8.20;3.45;;;;;;;;;;5049969;28;20017;-82
2023/11/27 10:04:13;;;;;;;6.38;3.22;;;;;;;;;;5024807;28;20036;-82
2023/11/27 10:06:58;;;;;;;4.72;2.33;;;;;;;;;;5026235;28;20030;-83
2023/11/27 10:09:44;;;;;;;5.18;2.60;;;;;;;;;;5033177;28;20030;-84
2023/11/27 10:12:29;;;;;;;4.90;2.28;;;;;;;;;;5015643;28;20029;-83
2023/11/27 10:15:15;;;;;;;4.93;2.80;;;;;;;;;;5016010;28;20021;-83
2023/11/27 10:18:02;;;;;;;7.63;2.95;;;;;;;;;;5002001;28;20034;-83
2023/11/27 10:20:51;;;;;;;6.55;2.70;;;;;;;;;;4986815;28;20048;-81
2023/11/27 10:23:40;;;;;;;4.60;2.15;;;;;;;;;;5017267;28;20386;-82
2023/11/27 10:26:25;;;;;;;7.82;2.50;;;;;;;;;;5000944;28;20109;-83
2023/11/27 10:29:11;;;;;;;5.60;2.17;;;;;;;;;;5018435;28;20053;-83
2023/11/27 10:31:58;;;;;;;4.32;2.20;;;;;;;;;;5006057;28;20053;-83
2023/11/27 10:34:43;;;;;;;5.75;2.08;;;;;;;;;;5009900;28;20030;-83
2023/11/27 10:37:33;;;;;;;6.03;1.92;;;;;;;;;;5008809;28;20091;-83
2023/11/27 10:40:21;;;;;;;6.07;2.50;;;;;;;;;;5010072;28;20419;-85
2023/11/27 10:43:09;;;;;;;3.53;2.30;;;;;;;;;;5007295;28;20029;-82
2023/11/27 10:45:55;;;;;;;5.10;2.47;;;;;;;;;;5009970;28;20029;-82
2023/11/27 10:48:42;;;;;;;6.95;2.55;;;;;;;;;;5009431;28;20045;-83
2023/11/27 10:51:30;;;;;;;6.63;2.00;;;;;;;;;;5007978;28;20116;-82
2023/11/27 10:54:17;;;;;;;6.30;2.30;;;;;;;;;;5007402;28;20140;-83
2023/11/27 10:57:03;;;;;;;4.85;2.47;;;;;;;;;;5023441;28;20084;-83
2023/11/27 10:59:49;;;;;;;4.57;2.42;;;;;;;;;;5009144;28;20037;-83
2023/11/27 11:02:35;;;;;;;9.40;2.40;;;;;;;;;;5017476;28;20162;-83
2023/11/27 11:05:26;;;;;;;4.07;2.42;;;;;;;;;;5003738;28;20104;-83
2023/11/27 11:08:12;;;;;;;4.70;2.47;;;;;;;;;;5003409;28;20519;-83
2023/11/27 11:10:58;;;;;;;4.43;2.42;;;;;;;;;;5004350;28;20037;-84
2023/11/27 11:13:43;;;;;;;6.03;2.40;;;;;;;;;;5003880;28;20056;-83
2023/11/27 11:16:36;;;;;;;4.30;2.45;;;;;;;;;;5005929;28;20033;-82
2023/11/27 11:19:42;;;;;;;6.03;2.65;;;;;;;;;;5014515;28;20033;-82
2023/11/27 11:22:39;;;;;;;7.03;2.80;;;;;;;;;;4973949;28;20744;-84
2023/11/27 11:25:41;;;;;;;4.85;2.45;;;;;;;;;;5003476;28;20062;-83
2023/11/27 11:28:29;;;;;;;6.93;2.67;;;;;;;;;;5013887;28;20061;-83
2023/11/27 11:31:18;;;;;;;5.88;2.35;;;;;;;;;;5007446;28;20057;-84
2023/11/27 11:34:03;;;;;;;3.47;2.20;;;;;;;;;;5009341;28;20864;-83
2023/11/27 11:36:54;;;;;;;5.05;2.47;;;;;;;;;;5009518;28;20403;-83
2023/11/27 11:39:45;;;;;;;3.40;2.00;;;;;;;;;;5009631;28;20442;-84
2023/11/27 11:42:32;;;;;;;5.07;2.33;;;;;;;;;;5010296;28;20689;-83
2023/11/27 11:45:24;;;;;;;4.55;2.15;;;;;;;;;;5005926;28;20040;-83
2023/11/27 11:48:13;;;;;;;4.75;2.28;;;;;;;;;;5004275;28;20087;-84
2023/11/27 11:51:03;;;;;;;3.58;2.00;;;;;;;;;;5005235;28;20029;-84
2023/11/27 11:53:49;;;;;;;3.92;1.65;;;;;;;;;;5003316;28;20506;-84
2023/11/27 11:56:34;;;;;;;1.95;1.60;;;;;;;;;;5007265;28;20075;-83
2023/11/27 11:59:25;;;;;;;5.32;2.38;;;;;;;;;;5006666;28;20051;-83
2023/11/27 12:02:11;;;;;;;4.47;1.80;;;;;;;;;;5006279;28;20481;-84
2023/11/27 12:04:56;;;;;;;3.70;1.75;;;;;;;;;;5028491;28;20128;-83
2023/11/27 12:07:44;;;;;;;2.83;1.50;;;;;;;;;;5015195;28;20068;-82
2023/11/27 12:10:31;;;;;;;4.47;1.67;;;;;;;;;;5004477;28;20030;-84
2023/11/27 12:13:20;;;;;;;4.30;1.50;;;;;;;;;;4997066;28;20080;-84
2023/11/27 12:16:11;;;;;;;5.07;1.65;;;;;;;;;;5007443;28;20108;-83
2023/11/27 12:18:57;;;;;;;3.05;1.80;;;;;;;;;;5007883;28;20109;-83
2023/11/27 12:21:42;;;;;;;3.67;1.50;;;;;;;;;;5008842;28;20017;-84
2023/11/27 12:24:29;;;;;;;3.47;1.30;;;;;;;;;;5006686;28;20029;-84
2023/11/27 12:27:15;;;;;;;3.80;1.60;;;;;;;;;;5004805;28;20273;-84
2023/11/27 12:30:00;;;;;;;3.13;1.60;;;;;;;;;;5019588;28;20035;-83
2023/11/27 12:32:49;;;;;;;2.67;1.52;;;;;;;;;;5015176;28;20056;-83
2023/11/27 12:35:35;;;;;;;2.90;1.60;;;;;;;;;;5008506;28;20034;-83
2023/11/27 12:38:20;;;;;;;3.67;1.20;;;;;;;;;;5001970;28;20034;-84
2023/11/27 12:41:06;;;;;;;3.13;1.52;;;;;;;;;;5004563;28;20021;-84
2023/11/27 12:43:52;;;;;;;2.83;1.45;;;;;;;;;;5005932;28;20021;-84
2023/11/27 12:46:38;;;;;;;3.33;1.67;;;;;;;;;;5007440;28;20030;-84
2023/11/27 12:49:24;;;;;;;2.67;1.50;;;;;;;;;;5005928;28;20069;-85
2023/11/27 12:52:14;;;;;;;2.80;1.33;;;;;;;;;;5005908;28;20041;-84
2023/11/27 12:55:00;;;;;;;1.65;1.17;;;;;;;;;;5014730;28;20022;-84
2023/11/27 12:57:45;;;;;;;4.22;1.13;;;;;;;;;;4987738;28;20149;-83
2023/11/27 13:00:31;;;;;;;3.95;1.20;;;;;;;;;;5020961;28;20259;-84
2023/11/27 13:03:22;;;;;;;3.97;1.00;;;;;;;;;;5023218;28;20025;-83
2023/11/27 13:06:07;;;;;;;2.35;0.90;;;;;;;;;;5003580;28;20018;-82
2023/11/27 13:08:56;;;;;;;3.47;1.13;;;;;;;;;;5006135;28;20096;-85
2023/11/27 13:11:41;;;;;;;3.00;1.05;;;;;;;;;;5006142;28;20040;-82
2023/11/27 13:14:27;;;;;;;2.03;0.95;;;;;;;;;;4995146;28;20041;-82
2023/11/27 13:17:18;;;;;;;3.00;1.50;;;;;;;;;;5019148;28;20064;-83
2023/11/27 13:20:17;;;;;;;1.17;0.93;;;;;;;;;;5005580;28;20021;-82
2023/11/27 13:23:02;;;;;;;3.13;1.08;;;;;;;;;;5008906;28;20087;-82
2023/11/27 13:25:50;;;;;;;1.73;0.85;;;;;;;;;;5010231;28;20116;-84
2023/11/27 13:28:40;;;;;;;0.80;0.80;;;;;;;;;;5022257;28;20127;-83
2023/11/27 13:31:26;;;;;;;2.67;1.00;;;;;;;;;;5030171;28;20114;-83
2023/11/27 13:34:32;;;;;;;1.80;1.20;;;;;;;;;;5028674;28;20111;-83
2023/11/27 13:37:16;;;;;;;4.20;1.48;;;;;;;;;;5028917;28;20116;-82
2023/11/27 13:40:05;;;;;;;2.20;1.30;;;;;;;;;;5029984;28;20017;-83
2023/11/27 13:42:50;;;;;;;1.40;0.82;;;;;;;;;;5030708;28;20029;-83
2023/11/27 13:45:35;;;;;;;1.42;1.05;;;;;;;;;;5029235;28;20053;-83
2023/11/27 13:48:21;;;;;;;4.75;1.25;;;;;;;;;;5028563;28;20553;-83
2023/11/27 13:51:13;;;;;;;2.72;1.52;;;;;;;;;;5028307;28;20395;-83
2023/11/27 13:53:59;;;;;;;4.47;1.85;;;;;;;;;;5029614;28;20029;-84
2023/11/27 13:56:44;;;;;;;1.85;1.10;;;;;;;;;;5028856;28;20040;-84
2023/11/27 13:59:35;;;;;;;2.10;1.13;;;;;;;;;;5022344;28;20108;-84
2023/11/27 14:02:20;;;;;;;1.33;1.02;;;;;;;;;;5024552;28;20036;-84
2023/11/27 14:05:06;;;;;;;3.38;0.90;;;;;;;;;;5023825;28;20020;-83
2023/11/27 14:07:52;;;;;;;5.55;1.17;;;;;;;;;;5023829;28;20569;-83
2023/11/27 14:13:42;;;;;;;2.47;0.93;;;;;;;;;;5028798;28;20048;-83
2023/11/27 14:16:27;;;;;;;2.05;1.10;;;;;;;;;;5009370;28;20026;-82
2023/11/27 14:25:26;;;;;;;1.90;1.10;;;;;;;;;;5023172;28;20034;-82
2023/11/27 14:28:30;;;;;;;5.60;1.40;;;;;;;;;;5021470;28;20080;-84
2023/11/27 14:31:19;;;;;;;3.40;1.08;;;;;;;;;;5027052;28;20029;-82
2023/11/27 14:34:04;;;;;;;1.67;1.00;;;;;;;;;;5029524;28;20543;-83
2023/11/27 14:36:49;;;;;;;4.20;1.73;;;;;;;;;;5029727;28;20627;-83
2023/11/27 14:39:38;;;;;;;1.70;1.30;;;;;;;;;;5023419;28;20419;-83
2023/11/27 14:42:24;;;;;;;3.83;1.00;;;;;;;;;;5024529;28;20021;-83
2023/11/27 14:45:10;;;;;;;2.28;0.93;;;;;;;;;;5023734;28;20721;-83
2023/11/27 14:47:56;;;;;;;3.50;1.23;;;;;;;;;;5023643;28;20090;-83
2023/11/27 14:50:42;;;;;;;2.70;1.60;;;;;;;;;;5024583;28;20498;-84
2023/11/27 14:53:27;;;;;;;2.45;1.30;;;;;;;;;;5024883;28;20395;-82
2023/11/27 14:56:13;;;;;;;1.15;1.00;;;;;;;;;;5028866;28;20029;-83
2023/11/27 14:59:00;;;;;;;1.42;1.08;;;;;;;;;;5027173;28;20032;-84
2023/11/27 15:01:45;;;;;;;1.67;1.05;;;;;;;;;;5028872;28;20031;-83
2023/11/27 15:04:30;;;;;;;2.50;1.48;;;;;;;;;;5012062;28;20021;-82
2023/11/27 15:07:16;;;;;;;2.50;1.42;;;;;;;;;;5026891;28;20033;-83
2023/11/27 15:10:02;;;;;;;3.30;1.33;;;;;;;;;;5028736;28;20013;-83
2023/11/27 15:12:47;;;;;;;2.95;1.10;;;;;;;;;;5028569;28;20045;-83
2023/11/27 15:15:32;;;;;;;2.60;1.35;;;;;;;;;;5028338;28;20037;-82
2023/11/27 15:18:18;;;;;;;2.58;1.27;;;;;;;;;;5026937;28;20036;-82
2023/11/27 15:21:08;;;;;;;3.75;1.75;;;;;;;;;;5027998;28;20025;-82
2023/11/27 15:23:53;;;;;;;2.25;1.30;;;;;;;;;;5024231;28;20025;-83
2023/11/27 15:26:39;;;;;;;3.83;1.63;;;;;;;;;;5023362;28;20072;-84
2023/11/27 15:29:30;;;;;;;6.40;3.63;;;;;;;;;;5010384;28;20264;-83
2023/11/27 15:32:18;;;;;;;3.03;1.83;;;;;;;;;;5003184;28;20029;-84
2023/11/27 15:35:04;;;;;;;4.28;1.20;;;;;;;;;;5007078;28;20021;-83
2023/11/27 15:37:51;;;;;;;2.17;1.27;;;;;;;;;;5007539;28;20065;-83
2023/11/27 15:40:38;;;;;;;5.75;1.40;;;;;;;;;;5008727;28;20024;-84
2023/11/27 15:43:23;;;;;;;1.98;1.20;;;;;;;;;;4995346;28;20061;-83
2023/11/27 15:46:10;;;;;;;1.92;1.00;;;;;;;;;;5006488;28;20027;-82
2023/11/27 15:48:58;;;;;;;3.05;1.25;;;;;;;;;;5008540;28;20030;-83
2023/11/27 15:51:44;;;;;;;3.60;1.20;;;;;;;;;;5007988;28;20079;-83
2023/11/27 15:54:29;;;;;;;2.97;1.33;;;;;;;;;;5017820;28;20025;-83
2023/11/27 15:57:14;;;;;;;1.45;0.90;;;;;;;;;;5000571;28;20558;-83
2023/11/27 15:59:59;;;;;;;3.63;1.52;;;;;;;;;;5003481;28;20476;-83
2023/11/27 16:02:45;;;;;;;3.00;1.05;;;;;;;;;;5008350;28;20075;-83
2023/11/27 16:05:31;;;;;;;1.02;0.80;;;;;;;;;;5006362;28;20622;-83
2023/11/27 16:08:16;;;;;;;1.98;0.95;;;;;;;;;;5006748;28;20368;-83
2023/11/27 16:11:02;;;;;;;2.78;1.13;;;;;;;;;;5004222;28;20025;-83
2023/11/27 16:13:48;;;;;;;2.72;1.27;;;;;;;;;;5010838;28;20034;-84
2023/11/27 16:16:39;;;;;;;3.70;1.08;;;;;;;;;;5000179;28;20034;-83
2023/11/27 16:19:24;;;;;;;4.80;1.70;;;;;;;;;;5002805;28;20296;-84
2023/11/27 16:22:10;;;;;;;1.83;1.17;;;;;;;;;;5006456;28;20507;-83
2023/11/27 16:24:55;;;;;;;3.10;1.23;;;;;;;;;;5007249;28;20104;-83
2023/11/27 16:27:40;;;;;;;1.20;1.00;;;;;;;;;;5002303;28;20034;-83
2023/11/27 16:30:32;;;;;;;3.58;1.52;;;;;;;;;;5003383;28;20056;-85
2023/11/27 16:33:19;;;;;;;2.63;1.33;;;;;;;;;;5009964;28;20029;-83
2023/11/27 16:36:04;;;;;;;2.20;1.30;;;;;;;;;;4999883;28;20022;-83
2023/11/27 16:38:50;;;;;;;5.00;1.63;;;;;;;;;;5000798;28;20413;-85
2023/11/27 16:41:35;;;;;;;1.70;1.20;;;;;;;;;;5004227;28;20025;-83
2023/11/27 16:44:22;;;;;;;2.92;1.50;;;;;;;;;;5020687;28;20041;-83
2023/11/27 16:47:07;;;;;;;2.92;1.00;;;;;;;;;;5001649;28;20495;-82